Flores Da Cunha, Brazil
Current Conditions -  °F | °C
As of 2:00 PM on Sunday 21 Dec 2014 (Local Time) from SBCO Reporting Station
Moderate Rain Moderate Rain  
Wind Chill: 73°   Ceiling: 1500
Heat Index: 73°   Visibility: 1mi
Dew Point: 73°   Wind: 3mph
Humidity: 100%   Direction: 180°S
Pressure: 29.53"   Gusts: NA
Location:  29.03°S, 51.18°W
Report Text: SBCO 211600Z 18003KT 1600 R30/1500 R12/1700 RA BR SCT005 BKN015 FEW030TCU OVC040 23/23 Q1000 RETS
Loading
Personal Weather Stations






























Interactive Weather Map New forecast layout! Learn more

10-Day Weather Forecast

Advertisements
Track Severe Weather on mobile